Webb, Iowa
Current Conditions -  °F | °C
As of 1:53 AM on Friday 24 Oct 2014 (Local Time) from KSPW Reporting Station
Clear Clear  
Wind Chill: 44°   Ceiling: Unl
Heat Index: 47°   Visibility: 10mi
Dew Point: 42°   Wind: 7mph
Humidity: 83%   Direction: 150°SSE
Pressure: 29.96"   Gusts: NA
Location:  42.95°N, 95.01°W
Report Text: KSPW 240653Z AUTO 15006KT 10SM CLR 08/06 A2996 RMK AO2 SLP145 T00830056 TSNO
Loading
Personal Weather Stations






























Interactive Weather Map New forecast layout! Learn more

10-Day Weather Forecast

Advertisements
Track Severe Weather on mobile